sensor_id;sensor_type;location;lat;lon;timestamp;P1;durP1;ratioP1;P2;durP2;ratioP2
9254;SDS011;4663;49.120;9.730;2023-04-24T00:00:11;30.53;;;29.13;;
9254;SDS011;4663;49.120;9.730;2023-04-24T00:02:39;30.33;;;28.83;;
9254;SDS011;4663;49.120;9.730;2023-04-24T00:05:06;29.87;;;28.47;;
9254;SDS011;4663;49.120;9.730;2023-04-24T00:07:32;30.10;;;28.60;;
9254;SDS011;4663;49.120;9.730;2023-04-24T00:09:58;29.57;;;28.10;;
9254;SDS011;4663;49.120;9.730;2023-04-24T00:12:24;31.83;;;30.27;;
9254;SDS011;4663;49.120;9.730;2023-04-24T00:14:50;31.53;;;29.90;;
9254;SDS011;4663;49.120;9.730;2023-04-24T00:17:15;32.27;;;30.77;;
9254;SDS011;4663;49.120;9.730;2023-04-24T00:19:41;31.90;;;30.37;;
9254;SDS011;4663;49.120;9.730;2023-04-24T00:22:06;30.53;;;29.13;;
9254;SDS011;4663;49.120;9.730;2023-04-24T00:24:32;31.43;;;30.00;;
9254;SDS011;4663;49.120;9.730;2023-04-24T00:26:57;30.40;;;28.97;;
9254;SDS011;4663;49.120;9.730;2023-04-24T00:29:23;32.80;;;31.27;;
9254;SDS011;4663;49.120;9.730;2023-04-24T00:31:48;29.73;;;28.23;;
9254;SDS011;4663;49.120;9.730;2023-04-24T00:34:13;31.00;;;29.50;;
9254;SDS011;4663;49.120;9.730;2023-04-24T00:36:39;30.67;;;29.10;;
9254;SDS011;4663;49.120;9.730;2023-04-24T00:39:05;33.27;;;31.73;;
9254;SDS011;4663;49.120;9.730;2023-04-24T00:41:30;32.10;;;30.57;;
9254;SDS011;4663;49.120;9.730;2023-04-24T00:43:56;31.37;;;29.80;;
9254;SDS011;4663;49.120;9.730;2023-04-24T00:46:21;31.00;;;29.57;;
9254;SDS011;4663;49.120;9.730;2023-04-24T00:48:47;32.63;;;31.13;;
9254;SDS011;4663;49.120;9.730;2023-04-24T00:51:12;33.27;;;31.40;;
9254;SDS011;4663;49.120;9.730;2023-04-24T00:53:38;32.63;;;31.00;;
9254;SDS011;4663;49.120;9.730;2023-04-24T00:56:03;30.60;;;29.00;;
9254;SDS011;4663;49.120;9.730;2023-04-24T00:58:30;32.70;;;31.20;;
9254;SDS011;4663;49.120;9.730;2023-04-24T01:00:56;34.10;;;32.47;;
9254;SDS011;4663;49.120;9.730;2023-04-24T01:03:22;32.03;;;30.53;;
9254;SDS011;4663;49.120;9.730;2023-04-24T01:05:51;34.60;;;32.83;;
9254;SDS011;4663;49.120;9.730;2023-04-24T01:08:17;32.47;;;30.80;;
9254;SDS011;4663;49.120;9.730;2023-04-24T01:10:43;30.47;;;29.07;;
9254;SDS011;4663;49.120;9.730;2023-04-24T01:13:10;34.80;;;33.20;;
9254;SDS011;4663;49.120;9.730;2023-04-24T01:15:35;35.53;;;33.70;;
9254;SDS011;4663;49.120;9.730;2023-04-24T01:18:01;29.83;;;28.43;;
9254;SDS011;4663;49.120;9.730;2023-04-24T01:20:26;32.70;;;30.70;;
9254;SDS011;4663;49.120;9.730;2023-04-24T01:22:54;33.40;;;31.60;;
9254;SDS011;4663;49.120;9.730;2023-04-24T01:25:19;32.43;;;30.90;;
9254;SDS011;4663;49.120;9.730;2023-04-24T01:27:45;31.83;;;30.33;;
9254;SDS011;4663;49.120;9.730;2023-04-24T01:30:11;32.40;;;30.70;;
9254;SDS011;4663;49.120;9.730;2023-04-24T01:32:37;32.30;;;30.60;;
9254;SDS011;4663;49.120;9.730;2023-04-24T01:35:04;31.60;;;30.10;;
9254;SDS011;4663;49.120;9.730;2023-04-24T01:37:29;33.73;;;32.13;;
9254;SDS011;4663;49.120;9.730;2023-04-24T01:39:57;34.10;;;32.37;;
9254;SDS011;4663;49.120;9.730;2023-04-24T01:42:22;35.73;;;34.10;;
9254;SDS011;4663;49.120;9.730;2023-04-24T01:44:48;33.33;;;31.73;;
9254;SDS011;4663;49.120;9.730;2023-04-24T01:47:13;34.90;;;33.30;;
9254;SDS011;4663;49.120;9.730;2023-04-24T01:49:39;35.47;;;33.77;;
9254;SDS011;4663;49.120;9.730;2023-04-24T01:52:04;33.70;;;31.97;;
9254;SDS011;4663;49.120;9.730;2023-04-24T01:54:30;34.07;;;32.50;;
9254;SDS011;4663;49.120;9.730;2023-04-24T01:56:55;36.57;;;34.77;;
9254;SDS011;4663;49.120;9.730;2023-04-24T01:59:21;32.90;;;31.33;;
9254;SDS011;4663;49.120;9.730;2023-04-24T02:01:48;34.47;;;32.80;;
9254;SDS011;4663;49.120;9.730;2023-04-24T02:04:13;33.63;;;31.73;;
9254;SDS011;4663;49.120;9.730;2023-04-24T02:06:40;31.83;;;30.33;;
9254;SDS011;4663;49.120;9.730;2023-04-24T02:09:05;32.23;;;30.67;;
9254;SDS011;4663;49.120;9.730;2023-04-24T02:11:31;31.07;;;29.63;;
9254;SDS011;4663;49.120;9.730;2023-04-24T02:13:56;27.37;;;26.10;;
9254;SDS011;4663;49.120;9.730;2023-04-24T02:16:22;25.53;;;24.27;;
9254;SDS011;4663;49.120;9.730;2023-04-24T02:18:47;23.80;;;22.67;;
9254;SDS011;4663;49.120;9.730;2023-04-24T02:21:13;24.77;;;23.53;;
9254;SDS011;4663;49.120;9.730;2023-04-24T02:23:38;24.80;;;23.47;;
9254;SDS011;4663;49.120;9.730;2023-04-24T02:26:03;24.13;;;23.03;;
9254;SDS011;4663;49.120;9.730;2023-04-24T02:28:29;24.17;;;22.73;;
9254;SDS011;4663;49.120;9.730;2023-04-24T02:30:54;23.83;;;22.53;;
9254;SDS011;4663;49.120;9.730;2023-04-24T02:33:20;22.67;;;21.47;;
9254;SDS011;4663;49.120;9.730;2023-04-24T02:35:45;20.90;;;19.97;;
9254;SDS011;4663;49.120;9.730;2023-04-24T02:38:10;19.30;;;18.33;;
9254;SDS011;4663;49.120;9.730;2023-04-24T02:40:36;20.67;;;19.70;;
9254;SDS011;4663;49.120;9.730;2023-04-24T02:43:01;20.47;;;19.37;;
9254;SDS011;4663;49.120;9.730;2023-04-24T02:45:27;18.77;;;17.90;;
9254;SDS011;4663;49.120;9.730;2023-04-24T02:47:52;19.30;;;18.40;;
9254;SDS011;4663;49.120;9.730;2023-04-24T02:50:17;19.33;;;18.30;;
9254;SDS011;4663;49.120;9.730;2023-04-24T02:52:43;17.23;;;16.43;;
9254;SDS011;4663;49.120;9.730;2023-04-24T02:55:08;18.37;;;17.47;;
9254;SDS011;4663;49.120;9.730;2023-04-24T02:57:34;17.93;;;17.03;;
9254;SDS011;4663;49.120;9.730;2023-04-24T02:59:59;18.10;;;17.20;;
9254;SDS011;4663;49.120;9.730;2023-04-24T03:02:25;16.83;;;16.03;;
9254;SDS011;4663;49.120;9.730;2023-04-24T03:04:50;16.73;;;15.93;;
9254;SDS011;4663;49.120;9.730;2023-04-24T03:07:16;17.90;;;16.97;;
9254;SDS011;4663;49.120;9.730;2023-04-24T03:09:41;16.47;;;15.67;;
9254;SDS011;4663;49.120;9.730;2023-04-24T03:12:07;16.87;;;16.07;;
9254;SDS011;4663;49.120;9.730;2023-04-24T03:14:32;17.03;;;16.13;;
9254;SDS011;4663;49.120;9.730;2023-04-24T03:16:57;16.10;;;15.30;;
9254;SDS011;4663;49.120;9.730;2023-04-24T03:19:23;17.83;;;16.93;;
9254;SDS011;4663;49.120;9.730;2023-04-24T03:21:49;16.33;;;15.53;;
9254;SDS011;4663;49.120;9.730;2023-04-24T03:24:14;17.03;;;16.13;;
9254;SDS011;4663;49.120;9.730;2023-04-24T03:26:39;17.53;;;16.53;;
9254;SDS011;4663;49.120;9.730;2023-04-24T03:29:05;16.57;;;15.77;;
9254;SDS011;4663;49.120;9.730;2023-04-24T03:31:30;17.00;;;16.10;;
9254;SDS011;4663;49.120;9.730;2023-04-24T03:33:55;17.90;;;16.80;;
9254;SDS011;4663;49.120;9.730;2023-04-24T03:36:21;17.40;;;16.40;;
9254;SDS011;4663;49.120;9.730;2023-04-24T03:38:46;18.23;;;17.17;;
9254;SDS011;4663;49.120;9.730;2023-04-24T03:41:11;18.40;;;17.50;;
9254;SDS011;4663;49.120;9.730;2023-04-24T03:43:37;18.37;;;17.30;;
9254;SDS011;4663;49.120;9.730;2023-04-24T03:46:03;18.73;;;17.63;;
9254;SDS011;4663;49.120;9.730;2023-04-24T03:48:29;59.20;;;56.10;;
9254;SDS011;4663;49.120;9.730;2023-04-24T03:50:54;19.47;;;18.40;;
9254;SDS011;4663;49.120;9.730;2023-04-24T03:53:20;17.83;;;16.93;;
9254;SDS011;4663;49.120;9.730;2023-04-24T03:55:45;18.87;;;17.77;;
9254;SDS011;4663;49.120;9.730;2023-04-24T03:58:11;17.20;;;16.30;;
9254;SDS011;4663;49.120;9.730;2023-04-24T04:00:36;16.33;;;15.53;;
9254;SDS011;4663;49.120;9.730;2023-04-24T04:03:02;17.20;;;16.40;;
9254;SDS011;4663;49.120;9.730;2023-04-24T04:05:28;17.67;;;16.87;;
9254;SDS011;4663;49.120;9.730;2023-04-24T04:07:54;17.10;;;16.20;;
9254;SDS011;4663;49.120;9.730;2023-04-24T04:10:20;16.23;;;15.43;;
9254;SDS011;4663;49.120;9.730;2023-04-24T04:12:45;16.53;;;15.73;;
9254;SDS011;4663;49.120;9.730;2023-04-24T04:15:10;17.80;;;16.80;;
9254;SDS011;4663;49.120;9.730;2023-04-24T04:17:36;29.90;;;28.43;;
9254;SDS011;4663;49.120;9.730;2023-04-24T04:20:03;18.13;;;17.23;;
9254;SDS011;4663;49.120;9.730;2023-04-24T04:22:32;18.80;;;17.90;;
9254;SDS011;4663;49.120;9.730;2023-04-24T04:24:57;19.80;;;18.77;;
9254;SDS011;4663;49.120;9.730;2023-04-24T04:27:22;19.73;;;18.73;;
9254;SDS011;4663;49.120;9.730;2023-04-24T04:29:48;20.67;;;19.70;;
9254;SDS011;4663;49.120;9.730;2023-04-24T04:32:14;21.67;;;20.37;;
9254;SDS011;4663;49.120;9.730;2023-04-24T04:34:40;24.37;;;23.27;;
9254;SDS011;4663;49.120;9.730;2023-04-24T04:37:05;24.97;;;23.77;;
9254;SDS011;4663;49.120;9.730;2023-04-24T04:39:31;25.77;;;24.57;;
9254;SDS011;4663;49.120;9.730;2023-04-24T04:41:56;26.80;;;25.53;;
9254;SDS011;4663;49.120;9.730;2023-04-24T04:44:21;29.73;;;28.13;;
9254;SDS011;4663;49.120;9.730;2023-04-24T04:46:48;31.23;;;29.60;;
9254;SDS011;4663;49.120;9.730;2023-04-24T04:49:14;33.60;;;32.00;;
9254;SDS011;4663;49.120;9.730;2023-04-24T04:51:41;36.13;;;34.17;;
9254;SDS011;4663;49.120;9.730;2023-04-24T04:54:07;34.13;;;32.53;;
9254;SDS011;4663;49.120;9.730;2023-04-24T04:56:32;37.87;;;36.10;;
9254;SDS011;4663;49.120;9.730;2023-04-24T04:58:58;35.57;;;33.87;;
9254;SDS011;4663;49.120;9.730;2023-04-24T05:01:24;36.47;;;34.77;;
9254;SDS011;4663;49.120;9.730;2023-04-24T05:03:52;34.30;;;32.70;;
9254;SDS011;4663;49.120;9.730;2023-04-24T05:06:18;33.10;;;31.50;;
9254;SDS011;4663;49.120;9.730;2023-04-24T05:08:43;33.87;;;32.10;;
9254;SDS011;4663;49.120;9.730;2023-04-24T05:11:08;32.63;;;31.03;;
9254;SDS011;4663;49.120;9.730;2023-04-24T05:13:34;38.10;;;36.23;;
9254;SDS011;4663;49.120;9.730;2023-04-24T05:16:00;37.23;;;35.43;;
9254;SDS011;4663;49.120;9.730;2023-04-24T05:18:25;38.97;;;37.13;;
9254;SDS011;4663;49.120;9.730;2023-04-24T05:20:51;39.63;;;37.67;;
9254;SDS011;4663;49.120;9.730;2023-04-24T05:23:16;42.00;;;40.03;;
9254;SDS011;4663;49.120;9.730;2023-04-24T05:25:41;38.83;;;37.00;;
9254;SDS011;4663;49.120;9.730;2023-04-24T05:28:07;39.10;;;37.27;;
9254;SDS011;4663;49.120;9.730;2023-04-24T05:30:33;40.73;;;38.83;;
9254;SDS011;4663;49.120;9.730;2023-04-24T05:32:58;40.90;;;39.00;;
9254;SDS011;4663;49.120;9.730;2023-04-24T05:35:24;38.07;;;36.30;;
9254;SDS011;4663;49.120;9.730;2023-04-24T05:37:49;41.10;;;39.20;;
9254;SDS011;4663;49.120;9.730;2023-04-24T05:40:14;42.87;;;40.70;;
9254;SDS011;4663;49.120;9.730;2023-04-24T05:42:40;42.20;;;40.13;;
9254;SDS011;4663;49.120;9.730;2023-04-24T05:45:05;45.40;;;43.03;;
9254;SDS011;4663;49.120;9.730;2023-04-24T05:47:31;44.67;;;42.37;;
9254;SDS011;4663;49.120;9.730;2023-04-24T05:49:57;43.83;;;41.80;;
9254;SDS011;4663;49.120;9.730;2023-04-24T05:52:22;42.07;;;40.10;;
9254;SDS011;4663;49.120;9.730;2023-04-24T05:54:47;44.57;;;42.37;;
9254;SDS011;4663;49.120;9.730;2023-04-24T05:57:13;42.30;;;40.37;;
9254;SDS011;4663;49.120;9.730;2023-04-24T05:59:38;43.93;;;41.90;;
9254;SDS011;4663;49.120;9.730;2023-04-24T06:02:06;35.67;;;34.00;;
9254;SDS011;4663;49.120;9.730;2023-04-24T06:04:32;34.00;;;32.40;;
9254;SDS011;4663;49.120;9.730;2023-04-24T06:06:58;30.27;;;28.80;;
9254;SDS011;4663;49.120;9.730;2023-04-24T06:09:24;29.70;;;28.30;;
9254;SDS011;4663;49.120;9.730;2023-04-24T06:11:50;34.07;;;32.47;;
9254;SDS011;4663;49.120;9.730;2023-04-24T06:14:17;31.37;;;29.70;;
9254;SDS011;4663;49.120;9.730;2023-04-24T06:16:43;30.83;;;29.23;;
9254;SDS011;4663;49.120;9.730;2023-04-24T06:19:08;30.40;;;28.93;;
9254;SDS011;4663;49.120;9.730;2023-04-24T06:21:34;33.10;;;31.37;;
9254;SDS011;4663;49.120;9.730;2023-04-24T06:24:00;30.67;;;29.13;;
9254;SDS011;4663;49.120;9.730;2023-04-24T06:26:25;36.50;;;34.57;;
9254;SDS011;4663;49.120;9.730;2023-04-24T06:28:51;34.90;;;33.07;;
9254;SDS011;4663;49.120;9.730;2023-04-24T06:31:19;32.90;;;31.23;;
9254;SDS011;4663;49.120;9.730;2023-04-24T06:33:45;34.37;;;32.70;;
9254;SDS011;4663;49.120;9.730;2023-04-24T06:36:11;38.77;;;36.27;;
9254;SDS011;4663;49.120;9.730;2023-04-24T06:38:37;23.87;;;22.47;;
9254;SDS011;4663;49.120;9.730;2023-04-24T06:41:02;21.70;;;20.13;;
9254;SDS011;4663;49.120;9.730;2023-04-24T06:43:30;18.57;;;17.33;;
9254;SDS011;4663;49.120;9.730;2023-04-24T06:45:55;15.50;;;14.70;;
9254;SDS011;4663;49.120;9.730;2023-04-24T06:48:22;15.02;;;14.13;;
9254;SDS011;4663;49.120;9.730;2023-04-24T06:50:47;16.33;;;15.52;;
9254;SDS011;4663;49.120;9.730;2023-04-24T06:53:12;14.48;;;13.68;;
9254;SDS011;4663;49.120;9.730;2023-04-24T06:55:39;13.40;;;12.70;;
9254;SDS011;4663;49.120;9.730;2023-04-24T06:58:05;13.93;;;13.23;;
9254;SDS011;4663;49.120;9.730;2023-04-24T07:00:31;13.80;;;13.10;;
9254;SDS011;4663;49.120;9.730;2023-04-24T07:02:56;14.70;;;13.95;;
9254;SDS011;4663;49.120;9.730;2023-04-24T07:05:22;14.50;;;13.73;;
9254;SDS011;4663;49.120;9.730;2023-04-24T07:07:48;17.83;;;16.92;;
9254;SDS011;4663;49.120;9.730;2023-04-24T07:10:14;17.10;;;16.27;;
9254;SDS011;4663;49.120;9.730;2023-04-24T07:12:40;20.13;;;19.02;;
9254;SDS011;4663;49.120;9.730;2023-04-24T07:15:05;20.88;;;19.77;;
9254;SDS011;4663;49.120;9.730;2023-04-24T07:17:33;20.83;;;19.75;;
9254;SDS011;4663;49.120;9.730;2023-04-24T07:19:59;18.05;;;17.17;;
9254;SDS011;4663;49.120;9.730;2023-04-24T07:22:25;17.58;;;16.67;;
9254;SDS011;4663;49.120;9.730;2023-04-24T07:24:50;15.05;;;14.15;;
9254;SDS011;4663;49.120;9.730;2023-04-24T07:27:16;13.32;;;12.73;;
9254;SDS011;4663;49.120;9.730;2023-04-24T07:29:41;14.02;;;13.32;;
9254;SDS011;4663;49.120;9.730;2023-04-24T07:32:07;13.48;;;12.82;;
9254;SDS011;4663;49.120;9.730;2023-04-24T07:34:33;14.35;;;13.43;;
9254;SDS011;4663;49.120;9.730;2023-04-24T07:36:58;14.88;;;14.07;;
9254;SDS011;4663;49.120;9.730;2023-04-24T07:39:25;15.77;;;14.93;;
9254;SDS011;4663;49.120;9.730;2023-04-24T07:41:51;17.13;;;16.33;;
9254;SDS011;4663;49.120;9.730;2023-04-24T07:44:16;15.75;;;14.88;;
9254;SDS011;4663;49.120;9.730;2023-04-24T07:46:42;18.42;;;17.48;;
9254;SDS011;4663;49.120;9.730;2023-04-24T07:49:07;21.95;;;20.83;;
9254;SDS011;4663;49.120;9.730;2023-04-24T07:51:33;25.77;;;24.50;;
9254;SDS011;4663;49.120;9.730;2023-04-24T07:54:03;23.23;;;22.13;;
9254;SDS011;4663;49.120;9.730;2023-04-24T07:56:28;21.00;;;19.90;;
9254;SDS011;4663;49.120;9.730;2023-04-24T07:58:56;18.38;;;17.38;;
9254;SDS011;4663;49.120;9.730;2023-04-24T08:01:21;15.65;;;14.75;;
9254;SDS011;4663;49.120;9.730;2023-04-24T08:03:46;16.58;;;15.77;;
9254;SDS011;4663;49.120;9.730;2023-04-24T08:06:12;18.60;;;17.70;;
9254;SDS011;4663;49.120;9.730;2023-04-24T08:08:37;22.42;;;21.35;;
9254;SDS011;4663;49.120;9.730;2023-04-24T08:11:03;24.75;;;23.30;;
9254;SDS011;4663;49.120;9.730;2023-04-24T08:13:28;24.15;;;23.00;;
9254;SDS011;4663;49.120;9.730;2023-04-24T08:15:54;24.45;;;23.23;;
9254;SDS011;4663;49.120;9.730;2023-04-24T08:18:19;21.67;;;20.45;;
9254;SDS011;4663;49.120;9.730;2023-04-24T08:20:44;20.55;;;19.55;;
9254;SDS011;4663;49.120;9.730;2023-04-24T08:23:10;20.98;;;19.90;;
9254;SDS011;4663;49.120;9.730;2023-04-24T08:25:36;22.38;;;21.08;;
9254;SDS011;4663;49.120;9.730;2023-04-24T08:28:02;24.27;;;23.08;;
9254;SDS011;4663;49.120;9.730;2023-04-24T08:30:28;25.42;;;24.20;;
9254;SDS011;4663;49.120;9.730;2023-04-24T08:32:54;23.17;;;22.08;;
9254;SDS011;4663;49.120;9.730;2023-04-24T08:35:20;23.02;;;21.83;;
9254;SDS011;4663;49.120;9.730;2023-04-24T08:37:45;25.13;;;23.75;;
9254;SDS011;4663;49.120;9.730;2023-04-24T08:40:14;23.08;;;21.98;;
9254;SDS011;4663;49.120;9.730;2023-04-24T08:42:43;25.17;;;23.95;;
9254;SDS011;4663;49.120;9.730;2023-04-24T08:45:11;24.40;;;23.15;;
9254;SDS011;4663;49.120;9.730;2023-04-24T08:47:38;23.10;;;21.80;;
9254;SDS011;4663;49.120;9.730;2023-04-24T08:50:05;23.83;;;22.63;;
9254;SDS011;4663;49.120;9.730;2023-04-24T08:52:32;23.00;;;21.75;;
9254;SDS011;4663;49.120;9.730;2023-04-24T08:54:59;15.63;;;14.82;;
9254;SDS011;4663;49.120;9.730;2023-04-24T08:57:26;16.85;;;16.00;;
9254;SDS011;4663;49.120;9.730;2023-04-24T08:59:52;28.58;;;27.17;;
9254;SDS011;4663;49.120;9.730;2023-04-24T09:02:18;27.38;;;26.08;;
9254;SDS011;4663;49.120;9.730;2023-04-24T09:04:44;19.25;;;18.35;;
9254;SDS011;4663;49.120;9.730;2023-04-24T09:07:12;16.92;;;16.02;;
9254;SDS011;4663;49.120;9.730;2023-04-24T09:09:39;31.70;;;30.10;;
9254;SDS011;4663;49.120;9.730;2023-04-24T09:12:06;43.97;;;41.83;;
9254;SDS011;4663;49.120;9.730;2023-04-24T09:14:34;41.63;;;39.70;;
9254;SDS011;4663;49.120;9.730;2023-04-24T09:17:01;41.17;;;39.25;;
9254;SDS011;4663;49.120;9.730;2023-04-24T09:19:26;38.97;;;37.03;;
9254;SDS011;4663;49.120;9.730;2023-04-24T09:21:52;40.42;;;38.42;;
9254;SDS011;4663;49.120;9.730;2023-04-24T09:24:18;26.08;;;24.77;;
9254;SDS011;4663;49.120;9.730;2023-04-24T09:26:48;23.15;;;22.05;;
9254;SDS011;4663;49.120;9.730;2023-04-24T09:29:17;39.33;;;37.47;;
9254;SDS011;4663;49.120;9.730;2023-04-24T09:31:44;41.28;;;39.28;;
9254;SDS011;4663;49.120;9.730;2023-04-24T09:34:10;17.27;;;16.40;;
9254;SDS011;4663;49.120;9.730;2023-04-24T09:36:37;22.23;;;21.20;;
9254;SDS011;4663;49.120;9.730;2023-04-24T09:39:05;30.88;;;29.27;;
9254;SDS011;4663;49.120;9.730;2023-04-24T09:41:36;34.30;;;32.60;;
9254;SDS011;4663;49.120;9.730;2023-04-24T09:44:13;25.52;;;24.15;;
9254;SDS011;4663;49.120;9.730;2023-04-24T09:46:44;16.80;;;15.75;;
9254;SDS011;4663;49.120;9.730;2023-04-24T09:49:14;14.45;;;13.75;;
9254;SDS011;4663;49.120;9.730;2023-04-24T09:51:41;15.48;;;14.68;;
9254;SDS011;4663;49.120;9.730;2023-04-24T09:54:13;30.45;;;28.95;;
9254;SDS011;4663;49.120;9.730;2023-04-24T09:56:47;29.17;;;27.77;;
9254;SDS011;4663;49.120;9.730;2023-04-24T09:59:15;18.90;;;17.95;;
9254;SDS011;4663;49.120;9.730;2023-04-24T10:01:41;15.48;;;14.75;;
9254;SDS011;4663;49.120;9.730;2023-04-24T10:04:53;15.60;;;14.90;;
9254;SDS011;4663;49.120;9.730;2023-04-24T10:07:01;31.88;;;30.30;;
9254;SDS011;4663;49.120;9.730;2023-04-24T10:09:31;35.72;;;33.65;;
9254;SDS011;4663;49.120;9.730;2023-04-24T10:11:57;27.60;;;26.33;;
9254;SDS011;4663;49.120;9.730;2023-04-24T10:14:23;24.50;;;23.38;;
9254;SDS011;4663;49.120;9.730;2023-04-24T10:16:50;24.02;;;22.88;;
9254;SDS011;4663;49.120;9.730;2023-04-24T10:19:18;26.27;;;24.77;;
9254;SDS011;4663;49.120;9.730;2023-04-24T10:21:44;27.70;;;26.38;;
9254;SDS011;4663;49.120;9.730;2023-04-24T10:24:16;27.48;;;26.17;;
9254;SDS011;4663;49.120;9.730;2023-04-24T10:26:43;21.80;;;20.75;;
9254;SDS011;4663;49.120;9.730;2023-04-24T10:29:10;15.10;;;14.38;;
9254;SDS011;4663;49.120;9.730;2023-04-24T10:31:37;14.02;;;13.32;;
9254;SDS011;4663;49.120;9.730;2023-04-24T10:34:06;13.82;;;13.05;;
9254;SDS011;4663;49.120;9.730;2023-04-24T10:36:33;21.17;;;20.13;;
9254;SDS011;4663;49.120;9.730;2023-04-24T10:39:01;27.35;;;26.00;;
9254;SDS011;4663;49.120;9.730;2023-04-24T10:41:29;37.22;;;35.45;;
9254;SDS011;4663;49.120;9.730;2023-04-24T10:44:12;29.77;;;28.25;;
9254;SDS011;4663;49.120;9.730;2023-04-24T10:46:39;18.23;;;17.33;;
9254;SDS011;4663;49.120;9.730;2023-04-24T10:49:08;28.55;;;27.25;;
9254;SDS011;4663;49.120;9.730;2023-04-24T10:51:47;37.30;;;35.53;;
9254;SDS011;4663;49.120;9.730;2023-04-24T10:56:49;16.67;;;15.88;;
9254;SDS011;4663;49.120;9.730;2023-04-24T10:59:23;22.38;;;21.30;;
9254;SDS011;4663;49.120;9.730;2023-04-24T11:01:54;31.52;;;30.05;;
9254;SDS011;4663;49.120;9.730;2023-04-24T11:04:29;36.50;;;34.70;;
9254;SDS011;4663;49.120;9.730;2023-04-24T11:07:02;18.48;;;17.48;;
9254;SDS011;4663;49.120;9.730;2023-04-24T11:09:32;13.93;;;13.13;;
9254;SDS011;4663;49.120;9.730;2023-04-24T11:12:04;18.17;;;17.17;;
9254;SDS011;4663;49.120;9.730;2023-04-24T11:15:21;20.67;;;19.70;;
9254;SDS011;4663;49.120;9.730;2023-04-24T11:20:09;32.38;;;30.83;;
9254;SDS011;4663;49.120;9.730;2023-04-24T11:22:37;29.42;;;27.92;;
9254;SDS011;4663;49.120;9.730;2023-04-24T11:25:07;28.48;;;27.02;;
9254;SDS011;4663;49.120;9.730;2023-04-24T11:27:43;28.40;;;26.98;;
9254;SDS011;4663;49.120;9.730;2023-04-24T11:30:11;26.98;;;25.67;;
9254;SDS011;4663;49.120;9.730;2023-04-24T11:32:37;29.65;;;28.13;;
9254;SDS011;4663;49.120;9.730;2023-04-24T11:35:10;31.13;;;29.58;;
9254;SDS011;4663;49.120;9.730;2023-04-24T11:37:42;28.65;;;27.33;;
9254;SDS011;4663;49.120;9.730;2023-04-24T11:40:11;26.10;;;24.88;;
9254;SDS011;4663;49.120;9.730;2023-04-24T11:42:39;25.95;;;24.73;;
9254;SDS011;4663;49.120;9.730;2023-04-24T11:45:08;22.17;;;20.98;;
9254;SDS011;4663;49.120;9.730;2023-04-24T11:47:34;22.33;;;21.33;;
9254;SDS011;4663;49.120;9.730;2023-04-24T11:50:00;22.67;;;21.48;;
9254;SDS011;4663;49.120;9.730;2023-04-24T11:52:26;24.42;;;23.27;;
9254;SDS011;4663;49.120;9.730;2023-04-24T11:54:52;28.35;;;27.02;;
9254;SDS011;4663;49.120;9.730;2023-04-24T11:57:21;25.95;;;24.52;;
9254;SDS011;4663;49.120;9.730;2023-04-24T11:59:47;19.40;;;18.48;;
9254;SDS011;4663;49.120;9.730;2023-04-24T12:02:26;16.75;;;15.85;;
9254;SDS011;4663;49.120;9.730;2023-04-24T12:04:52;13.43;;;12.63;;
9254;SDS011;4663;49.120;9.730;2023-04-24T12:07:19;12.90;;;12.10;;
9254;SDS011;4663;49.120;9.730;2023-04-24T12:09:46;12.82;;;12.13;;
9254;SDS011;4663;49.120;9.730;2023-04-24T12:12:13;12.90;;;12.30;;
9254;SDS011;4663;49.120;9.730;2023-04-24T12:14:43;13.27;;;12.60;;
9254;SDS011;4663;49.120;9.730;2023-04-24T12:17:23;12.38;;;11.77;;
9254;SDS011;4663;49.120;9.730;2023-04-24T12:19:50;13.95;;;13.15;;
9254;SDS011;4663;49.120;9.730;2023-04-24T12:22:16;12.93;;;12.20;;
9254;SDS011;4663;49.120;9.730;2023-04-24T12:27:29;13.00;;;12.30;;
9254;SDS011;4663;49.120;9.730;2023-04-24T12:29:56;13.52;;;12.82;;
9254;SDS011;4663;49.120;9.730;2023-04-24T12:32:23;14.30;;;13.50;;
9254;SDS011;4663;49.120;9.730;2023-04-24T12:34:50;14.35;;;13.45;;
9254;SDS011;4663;49.120;9.730;2023-04-24T12:37:16;14.20;;;13.48;;
9254;SDS011;4663;49.120;9.730;2023-04-24T12:40:00;19.65;;;18.67;;
9254;SDS011;4663;49.120;9.730;2023-04-24T12:42:41;22.25;;;21.15;;
9254;SDS011;4663;49.120;9.730;2023-04-24T12:45:08;26.05;;;24.77;;
9254;SDS011;4663;49.120;9.730;2023-04-24T12:47:34;26.50;;;25.23;;
9254;SDS011;4663;49.120;9.730;2023-04-24T12:50:00;28.15;;;26.75;;
9254;SDS011;4663;49.120;9.730;2023-04-24T12:52:27;28.27;;;26.83;;
9254;SDS011;4663;49.120;9.730;2023-04-24T12:54:55;25.83;;;24.55;;
9254;SDS011;4663;49.120;9.730;2023-04-24T12:57:23;27.60;;;26.30;;
9254;SDS011;4663;49.120;9.730;2023-04-24T12:59:49;24.80;;;23.60;;
9254;SDS011;4663;49.120;9.730;2023-04-24T13:02:15;20.27;;;19.25;;
9254;SDS011;4663;49.120;9.730;2023-04-24T13:04:43;22.98;;;21.90;;
9254;SDS011;4663;49.120;9.730;2023-04-24T13:07:11;23.05;;;21.85;;
9254;SDS011;4663;49.120;9.730;2023-04-24T13:09:36;25.90;;;24.60;;
9254;SDS011;4663;49.120;9.730;2023-04-24T13:12:02;26.05;;;24.55;;
9254;SDS011;4663;49.120;9.730;2023-04-24T13:14:27;23.52;;;22.38;;
9254;SDS011;4663;49.120;9.730;2023-04-24T13:16:52;18.45;;;17.38;;
9254;SDS011;4663;49.120;9.730;2023-04-24T13:19:18;17.30;;;16.33;;
9254;SDS011;4663;49.120;9.730;2023-04-24T13:21:43;17.08;;;16.23;;
9254;SDS011;4663;49.120;9.730;2023-04-24T13:24:09;17.75;;;16.80;;
9254;SDS011;4663;49.120;9.730;2023-04-24T13:26:34;17.33;;;16.50;;
9254;SDS011;4663;49.120;9.730;2023-04-24T13:29:00;17.45;;;16.60;;
9254;SDS011;4663;49.120;9.730;2023-04-24T13:31:25;19.05;;;18.08;;
9254;SDS011;4663;49.120;9.730;2023-04-24T13:33:51;18.40;;;17.48;;
9254;SDS011;4663;49.120;9.730;2023-04-24T13:36:16;16.38;;;15.52;;
9254;SDS011;4663;49.120;9.730;2023-04-24T13:38:42;14.45;;;13.75;;
9254;SDS011;4663;49.120;9.730;2023-04-24T13:41:09;12.82;;;12.20;;
9254;SDS011;4663;49.120;9.730;2023-04-24T13:43:35;13.48;;;12.77;;
9254;SDS011;4663;49.120;9.730;2023-04-24T13:46:00;13.73;;;13.10;;
9254;SDS011;4663;49.120;9.730;2023-04-24T13:48:28;18.80;;;17.90;;
9254;SDS011;4663;49.120;9.730;2023-04-24T13:50:53;22.58;;;21.35;;
9254;SDS011;4663;49.120;9.730;2023-04-24T13:53:19;29.70;;;28.27;;
9254;SDS011;4663;49.120;9.730;2023-04-24T13:55:44;25.40;;;24.15;;
9254;SDS011;4663;49.120;9.730;2023-04-24T13:58:10;23.20;;;22.10;;
9254;SDS011;4663;49.120;9.730;2023-04-24T14:00:35;23.42;;;22.27;;
9254;SDS011;4663;49.120;9.730;2023-04-24T14:03:00;23.45;;;22.30;;
9254;SDS011;4663;49.120;9.730;2023-04-24T14:05:26;25.10;;;23.88;;
9254;SDS011;4663;49.120;9.730;2023-04-24T14:07:51;23.20;;;21.92;;
9254;SDS011;4663;49.120;9.730;2023-04-24T14:10:17;24.23;;;23.02;;
9254;SDS011;4663;49.120;9.730;2023-04-24T14:12:42;24.52;;;23.30;;
9254;SDS011;4663;49.120;9.730;2023-04-24T14:15:08;24.58;;;23.20;;
9254;SDS011;4663;49.120;9.730;2023-04-24T14:17:34;25.33;;;24.02;;
9254;SDS011;4663;49.120;9.730;2023-04-24T14:19:59;24.77;;;23.58;;
9254;SDS011;4663;49.120;9.730;2023-04-24T14:22:25;27.55;;;25.98;;
9254;SDS011;4663;49.120;9.730;2023-04-24T14:24:51;25.05;;;23.77;;
9254;SDS011;4663;49.120;9.730;2023-04-24T14:27:16;25.13;;;23.83;;
9254;SDS011;4663;49.120;9.730;2023-04-24T14:29:41;24.52;;;23.33;;
9254;SDS011;4663;49.120;9.730;2023-04-24T14:32:07;25.88;;;24.58;;
9254;SDS011;4663;49.120;9.730;2023-04-24T14:34:34;25.30;;;24.02;;
9254;SDS011;4663;49.120;9.730;2023-04-24T14:36:59;25.77;;;24.52;;
9254;SDS011;4663;49.120;9.730;2023-04-24T14:39:25;24.10;;;22.95;;
9254;SDS011;4663;49.120;9.730;2023-04-24T14:41:50;21.40;;;20.35;;
9254;SDS011;4663;49.120;9.730;2023-04-24T14:44:15;21.90;;;20.83;;
9254;SDS011;4663;49.120;9.730;2023-04-24T14:46:41;21.25;;;20.00;;
9254;SDS011;4663;49.120;9.730;2023-04-24T14:49:07;19.55;;;18.58;;
9254;SDS011;4663;49.120;9.730;2023-04-24T14:51:34;21.42;;;20.20;;